createdAt,value
2023-05-16T00:01:48.402Z,3.28
2023-05-16T00:04:15.293Z,1.83
2023-05-16T00:06:42.044Z,2.33
2023-05-16T00:09:08.797Z,1.90
2023-05-16T00:11:35.688Z,2.63
2023-05-16T00:14:02.638Z,2.45
2023-05-16T00:16:30.400Z,3.17
2023-05-16T00:19:00.856Z,2.80
2023-05-16T00:21:28.113Z,3.05
2023-05-16T00:23:54.843Z,3.92
2023-05-16T00:26:21.613Z,3.67
2023-05-16T00:28:48.400Z,2.58
2023-05-16T00:31:15.122Z,1.60
2023-05-16T00:33:41.874Z,2.08
2023-05-16T00:36:08.677Z,2.58
2023-05-16T00:38:35.520Z,2.10
2023-05-16T00:41:02.241Z,2.20
2023-05-16T00:43:29.123Z,1.63
2023-05-16T00:45:57.821Z,2.83
2023-05-16T00:48:25.049Z,2.10
2023-05-16T00:50:52.780Z,2.53
2023-05-16T00:53:20.129Z,2.55
2023-05-16T00:55:47.380Z,2.72
2023-05-16T00:58:14.783Z,1.98
2023-05-16T01:00:42.019Z,2.17
2023-05-16T01:03:08.928Z,1.40
2023-05-16T01:05:35.673Z,2.88
2023-05-16T01:08:02.387Z,3.08
2023-05-16T01:11:07.504Z,1.83
2023-05-16T01:14:01.597Z,1.88
2023-05-16T01:16:38.890Z,1.58
2023-05-16T01:19:53.002Z,2.15
2023-05-16T01:22:32.101Z,1.88
2023-05-16T01:25:34.158Z,2.75
2023-05-16T01:28:02.316Z,1.92
2023-05-16T01:30:35.170Z,2.10
2023-05-16T01:33:02.107Z,1.75
2023-05-16T01:35:29.662Z,1.88
2023-05-16T01:38:06.624Z,1.77
2023-05-16T01:40:46.000Z,2.72
2023-05-16T01:43:16.963Z,2.08
2023-05-16T01:45:51.126Z,2.10
2023-05-16T01:48:23.659Z,2.58
2023-05-16T01:50:57.660Z,1.70
2023-05-16T01:53:36.949Z,1.65
2023-05-16T01:56:05.199Z,1.95
2023-05-16T01:58:34.047Z,1.77
2023-05-16T02:01:04.775Z,2.00
2023-05-16T02:03:32.252Z,1.90
2023-05-16T02:05:59.367Z,3.38
2023-05-16T02:08:27.636Z,2.17
2023-05-16T02:10:54.454Z,1.92
2023-05-16T02:13:21.227Z,1.83
2023-05-16T02:15:47.934Z,2.00
2023-05-16T02:18:14.819Z,2.10
2023-05-16T02:20:42.971Z,2.15
2023-05-16T02:23:09.748Z,1.85
2023-05-16T02:25:36.434Z,2.00
2023-05-16T02:28:03.095Z,2.35
2023-05-16T02:30:29.788Z,2.00
2023-05-16T02:32:56.531Z,2.30
2023-05-16T02:35:23.294Z,1.80
2023-05-16T02:37:50.056Z,2.38
2023-05-16T02:40:17.217Z,2.58
2023-05-16T02:42:43.918Z,1.80
2023-05-16T02:45:10.938Z,2.20
2023-05-16T02:47:37.695Z,2.28
2023-05-16T02:50:06.280Z,1.80
2023-05-16T02:52:34.371Z,2.55
2023-05-16T02:55:20.177Z,2.10
2023-05-16T03:02:45.432Z,2.08
2023-05-16T03:05:12.522Z,2.30
2023-05-16T03:07:40.381Z,1.83
2023-05-16T03:10:07.696Z,3.80
2023-05-16T03:12:34.801Z,2.03
2023-05-16T03:15:01.773Z,4.05
2023-05-16T03:17:29.519Z,2.10
2023-05-16T03:19:57.315Z,2.05
2023-05-16T03:22:24.031Z,2.28
2023-05-16T03:24:50.791Z,2.00
2023-05-16T03:27:17.540Z,2.13
2023-05-16T03:29:44.178Z,2.10
2023-05-16T03:32:11.867Z,1.92
2023-05-16T03:34:38.737Z,3.42
2023-05-16T03:37:06.444Z,2.10
2023-05-16T03:39:33.584Z,2.42
2023-05-16T03:42:00.324Z,3.00
2023-05-16T03:44:26.947Z,1.75
2023-05-16T03:46:54.265Z,2.67
2023-05-16T03:49:23.686Z,2.03
2023-05-16T03:51:50.397Z,1.80
2023-05-16T03:54:17.250Z,2.10
2023-05-16T03:56:44.181Z,2.72
2023-05-16T03:59:10.852Z,2.70
2023-05-16T04:01:37.702Z,2.30
2023-05-16T04:04:04.634Z,2.35
2023-05-16T04:06:31.916Z,2.55
2023-05-16T04:08:58.586Z,3.33
2023-05-16T04:11:26.579Z,3.17
2023-05-16T04:13:54.164Z,2.72
2023-05-16T04:16:21.065Z,2.33
2023-05-16T04:18:47.790Z,3.53
2023-05-16T04:21:15.286Z,2.95
2023-05-16T04:23:42.429Z,2.63
2023-05-16T04:26:09.234Z,2.38
2023-05-16T04:28:36.014Z,2.40
2023-05-16T04:31:03.113Z,2.13
2023-05-16T04:33:29.941Z,2.13
2023-05-16T04:35:58.451Z,2.70
2023-05-16T04:38:25.139Z,2.47
2023-05-16T04:40:51.966Z,2.53
2023-05-16T04:43:19.717Z,2.42
2023-05-16T04:45:47.106Z,1.90
2023-05-16T04:48:13.889Z,2.20
2023-05-16T04:50:40.849Z,2.47
2023-05-16T04:53:07.899Z,2.25
2023-05-16T04:55:34.568Z,2.10
2023-05-16T04:58:01.279Z,2.58
2023-05-16T05:00:28.369Z,3.10
2023-05-16T05:02:55.288Z,3.03
2023-05-16T05:05:22.241Z,4.05
2023-05-16T05:07:49.132Z,2.40
2023-05-16T05:10:15.905Z,2.25
2023-05-16T05:12:42.642Z,2.95
2023-05-16T05:15:09.559Z,2.20
2023-05-16T05:17:37.702Z,2.33
2023-05-16T05:20:08.650Z,2.28
2023-05-16T05:22:35.441Z,2.67
2023-05-16T05:25:02.108Z,3.08
2023-05-16T05:27:28.848Z,2.78
2023-05-16T05:29:56.113Z,2.28
2023-05-16T05:32:22.760Z,2.55
2023-05-16T05:34:49.467Z,3.10
2023-05-16T05:37:16.171Z,3.80
2023-05-16T05:39:42.907Z,2.45
2023-05-16T05:42:09.652Z,2.17
2023-05-16T05:44:37.708Z,2.80
2023-05-16T05:47:06.257Z,2.58
2023-05-16T05:49:33.210Z,3.85
2023-05-16T05:52:00.074Z,3.75
2023-05-16T05:54:26.995Z,2.92
2023-05-16T05:56:53.658Z,3.13
2023-05-16T05:59:20.374Z,3.92
2023-05-16T06:01:47.155Z,3.30
2023-05-16T06:04:13.865Z,2.97
2023-05-16T06:06:40.608Z,2.95
2023-05-16T06:09:07.253Z,3.53
2023-05-16T06:11:33.926Z,3.38
2023-05-16T06:14:00.667Z,3.25
2023-05-16T06:16:27.475Z,4.15
2023-05-16T06:18:54.299Z,3.85
2023-05-16T06:21:21.053Z,4.28
2023-05-16T06:23:47.959Z,3.30
2023-05-16T06:26:14.744Z,3.05
2023-05-16T06:28:41.502Z,3.50
2023-05-16T06:31:08.303Z,2.78
2023-05-16T06:33:35.103Z,3.28
2023-05-16T06:36:01.846Z,3.97
2023-05-16T06:38:28.513Z,4.30
2023-05-16T06:40:55.279Z,2.80
2023-05-16T06:43:22.088Z,3.08
2023-05-16T06:45:48.919Z,3.58
2023-05-16T06:48:16.041Z,3.20
2023-05-16T06:50:42.828Z,4.20
2023-05-16T06:53:12.019Z,3.22
2023-05-16T06:55:39.229Z,3.28
2023-05-16T06:58:06.001Z,3.55
2023-05-16T07:00:32.776Z,4.18
2023-05-16T07:02:59.630Z,3.60
2023-05-16T07:05:26.673Z,3.53
2023-05-16T07:07:53.714Z,3.42
2023-05-16T07:10:21.092Z,3.97
2023-05-16T07:12:48.448Z,4.07
2023-05-16T07:15:15.392Z,3.33
2023-05-16T07:17:42.217Z,3.90
2023-05-16T07:20:13.410Z,3.67
2023-05-16T07:22:41.037Z,4.18
2023-05-16T07:25:12.514Z,4.25
2023-05-16T07:27:44.746Z,5.43
2023-05-16T07:30:13.000Z,4.47
2023-05-16T07:32:40.146Z,4.18
2023-05-16T07:35:07.373Z,3.72
2023-05-16T07:37:34.276Z,3.58
2023-05-16T07:40:01.140Z,3.63
2023-05-16T07:42:27.855Z,5.75
2023-05-16T07:44:54.596Z,4.05
2023-05-16T07:47:21.289Z,3.92
2023-05-16T07:49:48.058Z,5.40
2023-05-16T07:52:14.795Z,4.25
2023-05-16T07:54:41.499Z,3.67
2023-05-16T07:57:08.376Z,4.35
2023-05-16T07:59:35.170Z,4.03
2023-05-16T08:02:02.182Z,5.30
2023-05-16T08:04:28.959Z,4.78
2023-05-16T08:06:56.251Z,4.07
2023-05-16T08:09:22.948Z,3.72
2023-05-16T08:11:49.838Z,3.97
2023-05-16T08:14:16.589Z,4.18
2023-05-16T08:16:43.349Z,3.80
2023-05-16T08:19:10.219Z,3.72
2023-05-16T08:21:39.912Z,4.75
2023-05-16T08:24:13.016Z,3.55
2023-05-16T08:26:40.145Z,5.57
2023-05-16T08:29:06.891Z,4.55
2023-05-16T08:31:33.763Z,5.63
2023-05-16T08:34:01.762Z,4.32
2023-05-16T08:36:28.710Z,4.55
2023-05-16T08:38:55.458Z,4.82
2023-05-16T08:41:22.425Z,5.20
2023-05-16T08:43:49.321Z,7.10
2023-05-16T08:46:21.668Z,5.50
2023-05-16T08:48:54.459Z,5.10
2023-05-16T08:51:21.504Z,4.45
2023-05-16T08:53:59.955Z,5.35
2023-05-16T08:56:27.235Z,8.20
2023-05-16T08:58:55.297Z,7.05
2023-05-16T09:01:22.946Z,5.82
2023-05-16T09:03:51.104Z,6.07
2023-05-16T09:06:18.820Z,5.57
2023-05-16T09:08:46.602Z,6.72
2023-05-16T09:11:13.331Z,8.18
2023-05-16T09:13:40.068Z,6.05
2023-05-16T09:16:15.339Z,9.85
2023-05-16T09:19:06.896Z,5.60
2023-05-16T09:21:35.261Z,5.28
2023-05-16T09:24:09.464Z,4.63
2023-05-16T09:26:38.368Z,5.50
2023-05-16T09:29:14.503Z,8.10
2023-05-16T09:34:09.428Z,4.45
2023-05-16T09:36:36.751Z,4.65
2023-05-16T09:39:03.725Z,5.03
2023-05-16T09:41:35.038Z,4.68
2023-05-16T09:44:06.020Z,4.70
2023-05-16T09:46:35.908Z,5.40
2023-05-16T09:49:03.056Z,5.38
2023-05-16T09:51:29.906Z,5.18
2023-05-16T09:53:59.082Z,4.18
2023-05-16T09:56:25.853Z,3.50
2023-05-16T09:58:52.818Z,5.90
2023-05-16T10:01:20.302Z,5.72
2023-05-16T10:03:47.272Z,4.35
2023-05-16T10:06:16.563Z,4.05
2023-05-16T10:08:43.713Z,4.47
2023-05-16T10:11:11.177Z,4.35
2023-05-16T10:13:39.012Z,4.85
2023-05-16T10:16:12.353Z,4.43
2023-05-16T10:18:40.565Z,4.85
2023-05-16T10:21:11.859Z,4.25
2023-05-16T10:23:42.488Z,4.70
2023-05-16T10:26:11.266Z,4.18
2023-05-16T10:28:38.043Z,4.38
2023-05-16T10:31:05.833Z,4.90
2023-05-16T10:33:32.600Z,6.95
2023-05-16T10:35:59.543Z,3.97
2023-05-16T10:38:29.248Z,4.65
2023-05-16T10:40:56.728Z,4.10
2023-05-16T10:43:26.748Z,4.70
2023-05-16T10:45:57.340Z,3.90
2023-05-16T10:48:38.873Z,5.18
2023-05-16T10:51:23.649Z,4.78
2023-05-16T10:53:54.461Z,4.35
2023-05-16T10:56:29.169Z,5.75
2023-05-16T10:58:56.798Z,7.13
2023-05-16T11:01:36.668Z,7.10
2023-05-16T11:04:07.726Z,5.25
2023-05-16T11:06:49.479Z,5.65
2023-05-16T11:09:26.502Z,6.97
2023-05-16T11:11:53.405Z,5.30
2023-05-16T11:14:23.322Z,7.30
2023-05-16T11:17:03.662Z,6.03
2023-05-16T11:19:32.036Z,4.72
2023-05-16T11:22:25.614Z,5.43
2023-05-16T11:24:53.714Z,5.57
2023-05-16T11:27:34.393Z,4.75
2023-05-16T11:30:06.951Z,4.72
2023-05-16T11:32:35.564Z,6.63
2023-05-16T11:35:03.659Z,7.07
2023-05-16T11:37:31.079Z,5.30
2023-05-16T11:40:02.193Z,5.25
2023-05-16T11:42:31.744Z,5.18
2023-05-16T11:45:25.661Z,4.07
2023-05-16T11:47:52.918Z,5.97
2023-05-16T11:50:22.108Z,4.53
2023-05-16T11:52:53.701Z,4.85
2023-05-16T11:55:36.934Z,4.97
2023-05-16T11:58:08.058Z,4.63
2023-05-16T12:00:35.135Z,4.70
2023-05-16T12:03:05.621Z,4.75
2023-05-16T12:05:34.332Z,4.40
2023-05-16T12:08:02.721Z,4.80
2023-05-16T12:10:31.643Z,4.20
2023-05-16T12:12:58.661Z,3.75
2023-05-16T12:15:25.869Z,4.38
2023-05-16T12:17:53.028Z,4.88
2023-05-16T12:20:20.108Z,4.95
2023-05-16T12:22:46.938Z,4.43
2023-05-16T12:25:25.727Z,4.38
2023-05-16T12:27:58.870Z,4.55
2023-05-16T12:30:27.809Z,4.32
2023-05-16T12:33:03.369Z,3.53
2023-05-16T12:35:33.802Z,4.10
2023-05-16T12:38:04.138Z,3.75
2023-05-16T12:40:31.394Z,4.47
2023-05-16T12:42:58.402Z,4.07
2023-05-16T12:45:28.231Z,4.38
2023-05-16T12:47:55.210Z,3.90
2023-05-16T12:50:22.950Z,3.08
2023-05-16T12:53:00.512Z,4.10
2023-05-16T12:55:27.420Z,3.90
2023-05-16T12:57:56.477Z,4.22
2023-05-16T13:00:23.518Z,4.50
2023-05-16T13:02:50.704Z,3.22
2023-05-16T13:05:17.929Z,3.47
2023-05-16T13:07:45.075Z,4.40
2023-05-16T13:10:12.702Z,4.30
2023-05-16T13:12:40.801Z,3.90
2023-05-16T13:15:09.482Z,4.82
2023-05-16T13:17:37.724Z,3.92
2023-05-16T13:20:09.758Z,3.90
2023-05-16T13:22:37.106Z,4.45
2023-05-16T13:25:04.735Z,3.55
2023-05-16T13:27:31.945Z,4.57
2023-05-16T13:29:59.186Z,4.05
2023-05-16T13:32:26.274Z,4.18
2023-05-16T13:34:53.055Z,3.97
2023-05-16T13:37:19.883Z,4.60
2023-05-16T13:39:46.612Z,3.75
2023-05-16T13:42:13.365Z,4.20
2023-05-16T13:44:40.152Z,4.38
2023-05-16T13:47:06.996Z,4.95
2023-05-16T13:49:33.936Z,5.85
2023-05-16T13:52:01.614Z,6.35
2023-05-16T13:54:28.461Z,5.10
2023-05-16T13:56:55.226Z,4.53
2023-05-16T13:59:33.706Z,4.30
2023-05-16T14:02:05.167Z,4.38
2023-05-16T14:04:31.900Z,3.55
2023-05-16T14:06:58.663Z,4.60
2023-05-16T14:09:25.429Z,5.43
2023-05-16T14:11:52.524Z,3.70
2023-05-16T14:14:19.254Z,4.57
2023-05-16T14:16:46.249Z,4.20
2023-05-16T14:19:15.330Z,5.20
2023-05-16T14:21:43.404Z,4.93
2023-05-16T14:24:10.186Z,3.95
2023-05-16T14:26:36.918Z,4.97
2023-05-16T14:29:03.669Z,3.63
2023-05-16T14:31:30.863Z,3.40
2023-05-16T14:33:58.943Z,4.13
2023-05-16T14:36:25.858Z,3.83
2023-05-16T14:38:52.824Z,3.42
2023-05-16T14:41:19.536Z,3.67
2023-05-16T14:43:46.314Z,3.55
2023-05-16T14:46:13.167Z,4.63
2023-05-16T14:48:40.103Z,3.08
2023-05-16T14:51:07.291Z,3.45
2023-05-16T14:53:33.987Z,3.20
2023-05-16T14:56:02.787Z,2.80
2023-05-16T14:58:30.686Z,4.20
2023-05-16T15:00:57.566Z,3.92
2023-05-16T15:03:24.333Z,5.15
2023-05-16T15:05:51.334Z,4.40
2023-05-16T15:08:18.079Z,4.28
2023-05-16T15:10:44.782Z,2.90
2023-05-16T15:13:11.474Z,3.28
2023-05-16T15:15:38.802Z,3.95
2023-05-16T15:18:06.128Z,3.60
2023-05-16T15:20:33.261Z,3.28
2023-05-16T15:23:00.678Z,3.97
2023-05-16T15:25:27.951Z,3.75
2023-05-16T15:27:55.282Z,3.78
2023-05-16T15:30:22.370Z,4.22
2023-05-16T15:32:49.136Z,4.07
2023-05-16T15:35:16.265Z,3.03
2023-05-16T15:37:43.709Z,3.67
2023-05-16T15:40:11.250Z,3.63
2023-05-16T15:42:38.173Z,3.25
2023-05-16T15:45:05.933Z,3.40
2023-05-16T15:49:59.313Z,3.25
2023-05-16T15:52:26.080Z,2.67
2023-05-16T15:54:52.809Z,3.40
2023-05-16T15:57:19.533Z,4.15
2023-05-16T15:59:46.374Z,3.30
2023-05-16T16:02:13.196Z,3.65
2023-05-16T16:04:40.161Z,4.13
2023-05-16T16:07:07.069Z,3.80
2023-05-16T16:09:33.811Z,3.60
2023-05-16T16:12:00.555Z,3.53
2023-05-16T16:14:27.301Z,5.72
2023-05-16T16:16:54.080Z,3.47
2023-05-16T16:19:21.635Z,3.38
2023-05-16T16:21:48.469Z,4.30
2023-05-16T16:24:15.818Z,5.22
2023-05-16T16:26:43.306Z,3.88
2023-05-16T16:29:10.030Z,3.67
2023-05-16T16:31:36.831Z,4.63
2023-05-16T16:34:03.677Z,5.47
2023-05-16T16:36:31.629Z,5.03
2023-05-16T16:38:59.355Z,5.43
2023-05-16T16:41:26.120Z,4.45
2023-05-16T16:43:52.976Z,3.97
2023-05-16T16:46:19.729Z,4.00
2023-05-16T16:48:46.508Z,5.35
2023-05-16T16:51:13.238Z,3.50
2023-05-16T16:53:41.050Z,4.13
2023-05-16T16:56:07.832Z,5.15
2023-05-16T16:58:34.556Z,5.93
2023-05-16T17:01:01.763Z,5.15
2023-05-16T17:03:28.584Z,6.65
2023-05-16T17:05:55.560Z,3.80
2023-05-16T17:08:22.322Z,5.65
2023-05-16T17:10:49.054Z,3.40
2023-05-16T17:13:17.498Z,4.43
2023-05-16T17:15:44.375Z,5.40
2023-05-16T17:18:11.275Z,4.95
2023-05-16T17:20:38.089Z,5.32
2023-05-16T17:23:05.456Z,4.47
2023-05-16T17:25:32.453Z,4.32
2023-05-16T17:27:59.259Z,5.45
2023-05-16T17:30:26.264Z,5.88
2023-05-16T17:32:53.879Z,5.20
2023-05-16T17:35:20.815Z,4.47
2023-05-16T17:37:47.849Z,5.72
2023-05-16T17:40:17.043Z,4.57
2023-05-16T17:42:45.189Z,5.82
2023-05-16T17:45:13.793Z,3.85
2023-05-16T17:47:41.168Z,4.28
2023-05-16T17:50:10.128Z,5.35
2023-05-16T17:52:39.321Z,3.72
2023-05-16T17:55:08.565Z,5.90
2023-05-16T17:57:35.366Z,4.20
2023-05-16T18:00:04.697Z,3.90
2023-05-16T18:02:32.304Z,3.67
2023-05-16T18:04:59.518Z,3.75
2023-05-16T18:07:27.015Z,4.80
2023-05-16T18:09:54.193Z,4.75
2023-05-16T18:12:21.290Z,3.83
2023-05-16T18:14:48.127Z,3.78
2023-05-16T18:17:15.018Z,4.28
2023-05-16T18:19:41.840Z,4.50
2023-05-16T18:22:10.088Z,4.20
2023-05-16T18:24:37.464Z,4.10
2023-05-16T18:27:04.474Z,4.35
2023-05-16T18:29:31.246Z,3.70
2023-05-16T18:31:58.240Z,4.28
2023-05-16T18:34:24.991Z,3.85
2023-05-16T18:36:51.717Z,3.80
2023-05-16T18:39:20.244Z,3.45
2023-05-16T18:41:48.328Z,3.83
2023-05-16T18:44:18.737Z,3.97
2023-05-16T18:46:46.307Z,3.72
2023-05-16T18:49:14.090Z,3.95
2023-05-16T18:51:41.085Z,4.25
2023-05-16T18:54:07.866Z,4.35
2023-05-16T18:56:35.027Z,4.63
2023-05-16T18:59:01.823Z,3.50
2023-05-16T19:01:28.728Z,4.30
2023-05-16T19:06:22.319Z,4.18
2023-05-16T19:08:49.061Z,4.15
2023-05-16T19:11:17.407Z,4.95
2023-05-16T19:13:45.160Z,4.88
2023-05-16T19:16:11.900Z,3.90
2023-05-16T19:18:39.047Z,3.60
2023-05-16T19:21:07.736Z,4.45
2023-05-16T19:23:34.541Z,4.00
2023-05-16T19:26:01.422Z,3.92
2023-05-16T19:28:28.232Z,4.43
2023-05-16T19:30:55.034Z,4.05
2023-05-16T19:33:21.792Z,4.85
2023-05-16T19:35:51.376Z,5.55
2023-05-16T19:38:19.769Z,3.92
2023-05-16T19:40:46.868Z,4.32
2023-05-16T19:43:13.668Z,5.78
2023-05-16T19:45:40.448Z,5.35
2023-05-16T19:48:08.572Z,6.20
2023-05-16T19:50:36.382Z,6.45
2023-05-16T19:53:04.246Z,6.57
2023-05-16T19:55:32.176Z,4.40
2023-05-16T19:57:59.040Z,4.95
2023-05-16T20:00:25.953Z,4.00
2023-05-16T20:02:52.883Z,3.22
2023-05-16T20:05:22.656Z,5.55
2023-05-16T20:07:49.813Z,3.50
2023-05-16T20:10:17.333Z,3.30
2023-05-16T20:12:45.077Z,4.50
2023-05-16T20:15:12.278Z,3.15
2023-05-16T20:17:43.029Z,3.70
2023-05-16T20:20:10.313Z,3.47
2023-05-16T20:22:41.513Z,3.03
2023-05-16T20:25:10.325Z,3.78
2023-05-16T20:27:37.680Z,3.10
2023-05-16T20:30:06.615Z,3.72
2023-05-16T20:32:33.968Z,3.40
2023-05-16T20:35:01.236Z,3.22
2023-05-16T20:37:27.997Z,3.20
2023-05-16T20:39:55.254Z,2.60
2023-05-16T20:42:22.184Z,2.88
2023-05-16T20:44:49.107Z,2.60
2023-05-16T20:47:17.118Z,4.60
2023-05-16T20:49:44.128Z,5.85
2023-05-16T20:52:11.098Z,2.83
2023-05-16T20:54:37.913Z,2.50
2023-05-16T20:57:05.160Z,2.85
2023-05-16T20:59:32.235Z,2.33
2023-05-16T21:01:59.143Z,2.65
2023-05-16T21:04:25.916Z,3.20
2023-05-16T21:06:52.648Z,2.50
2023-05-16T21:09:19.417Z,3.38
2023-05-16T21:11:46.228Z,3.97
2023-05-16T21:14:12.982Z,2.63
2023-05-16T21:16:39.704Z,2.25
2023-05-16T21:19:06.679Z,2.90
2023-05-16T21:21:33.555Z,3.30
2023-05-16T21:24:00.358Z,3.17
2023-05-16T21:26:27.164Z,3.63
2023-05-16T21:28:55.491Z,2.35
2023-05-16T21:31:23.117Z,1.98
2023-05-16T21:33:52.930Z,2.38
2023-05-16T21:36:20.624Z,2.50
2023-05-16T21:38:47.656Z,2.42
2023-05-16T21:41:14.618Z,2.65
2023-05-16T21:43:41.452Z,2.13
2023-05-16T21:46:08.406Z,4.13
2023-05-16T21:48:35.579Z,2.08
2023-05-16T21:51:03.402Z,2.08
2023-05-16T21:53:30.247Z,2.00
2023-05-16T21:55:56.977Z,2.22
2023-05-16T21:58:25.189Z,2.10
2023-05-16T22:00:51.988Z,4.72
2023-05-16T22:03:21.077Z,2.35
2023-05-16T22:05:48.263Z,1.95
2023-05-16T22:08:15.199Z,2.47
2023-05-16T22:10:42.113Z,3.05
2023-05-16T22:13:08.929Z,2.15
2023-05-16T22:15:35.805Z,1.60
2023-05-16T22:18:02.732Z,2.95
2023-05-16T22:20:29.833Z,2.40
2023-05-16T22:22:56.640Z,1.90
2023-05-16T22:25:23.601Z,2.53
2023-05-16T22:27:50.496Z,2.65
2023-05-16T22:30:17.467Z,2.45
2023-05-16T22:32:45.791Z,2.13
2023-05-16T22:35:13.609Z,3.10
2023-05-16T22:37:40.400Z,1.88
2023-05-16T22:40:08.371Z,3.67
2023-05-16T22:42:35.088Z,2.20
2023-05-16T22:45:01.852Z,2.65
2023-05-16T22:47:29.075Z,2.35
2023-05-16T22:49:55.829Z,1.80
2023-05-16T22:52:22.707Z,2.25
2023-05-16T22:54:49.506Z,2.60
2023-05-16T22:57:16.463Z,3.13
2023-05-16T22:59:43.921Z,3.42
2023-05-16T23:02:10.681Z,1.75
2023-05-16T23:04:37.459Z,2.10
2023-05-16T23:07:04.369Z,1.80
2023-05-16T23:09:31.096Z,2.38
2023-05-16T23:11:57.870Z,2.45
2023-05-16T23:14:24.623Z,1.95
2023-05-16T23:16:51.372Z,2.35
2023-05-16T23:19:18.228Z,2.08
2023-05-16T23:21:45.284Z,3.13
2023-05-16T23:24:12.020Z,3.15
2023-05-16T23:26:38.748Z,2.05
2023-05-16T23:29:06.144Z,3.15
2023-05-16T23:31:32.896Z,2.55
2023-05-16T23:33:59.658Z,5.75
2023-05-16T23:36:26.514Z,2.00
2023-05-16T23:38:53.327Z,2.25
2023-05-16T23:41:20.062Z,1.85
2023-05-16T23:43:47.777Z,2.72
2023-05-16T23:46:14.593Z,2.55
2023-05-16T23:48:41.489Z,3.30
2023-05-16T23:51:08.376Z,1.90
2023-05-16T23:53:35.384Z,3.50
2023-05-16T23:56:02.289Z,3.20
2023-05-16T23:58:29.186Z,2.67
